Time;durP1;ratioP1;P1;durP2;ratioP2;P2;SDS_P1;SDS_P2;PMS_P1;PMS_P2;Temp;Humidity;BMP_temperature;BMP_pressure;BME280_temperature;BME280_humidity;BME280_pressure;Samples;Min_cycle;Max_cycle;Signal;HPM_P1;HPM_P2
2022/03/14 00:01:52;;;;;;;34.58;17.87;;;;;;;-0.86;62.58;102319.99;1732852;81;21598;-57
2022/03/14 00:04:21;;;;;;;30.75;16.75;;;;;;;-0.85;62.69;102314.41;1732466;81;21070;-57
2022/03/14 00:06:48;;;;;;;26.80;14.85;;;;;;;-0.80;62.74;102312.23;1721862;81;21063;-57
2022/03/14 00:09:19;;;;;;;26.07;13.80;;;;;;;-0.80;62.83;102315.27;1725659;82;21239;-57
2022/03/14 00:11:47;;;;;;;29.18;15.95;;;;;;;-0.77;62.93;102315.27;1724763;81;20997;-57
2022/03/14 00:14:13;;;;;;;32.10;17.30;;;;;;;-0.74;63.03;102315.23;1714039;82;21123;-57
2022/03/14 00:16:41;;;;;;;31.55;17.30;;;;;;;-0.74;62.96;102311.35;1721352;81;21110;-57
2022/03/14 00:19:09;;;;;;;32.00;17.35;;;;;;;-0.71;62.95;102316.52;1721064;81;21065;-57
2022/03/14 00:21:39;;;;;;;36.85;18.45;;;;;;;-0.67;63.08;102314.37;1721254;82;22043;-57
2022/03/14 00:24:08;;;;;;;39.05;18.40;;;;;;;-0.64;62.92;102317.38;1715797;81;21052;-58
2022/03/14 00:26:35;;;;;;;29.18;17.42;;;;;;;-0.62;62.85;102319.11;1716981;82;21053;-57
2022/03/14 00:29:03;;;;;;;36.15;19.15;;;;;;;-0.60;62.78;102316.08;1722730;82;21027;-57
2022/03/14 00:31:31;;;;;;;31.50;17.55;;;;;;;-0.56;62.60;102316.48;1720349;82;21108;-61
2022/03/14 00:33:57;;;;;;;29.72;18.25;;;;;;;-0.55;62.33;102317.36;1722191;81;21142;-58
2022/03/14 00:36:27;;;;;;;36.25;20.85;;;;;;;-0.55;62.33;102317.36;1717783;82;21122;-58
2022/03/14 00:38:54;;;;;;;32.85;18.50;;;;;;;-0.52;62.30;102316.48;1726857;82;21571;-57
2022/03/14 00:41:22;;;;;;;35.58;20.92;;;;;;;-0.49;62.25;102319.06;1735202;81;21158;-57
2022/03/14 00:43:48;;;;;;;37.40;20.10;;;;;;;-0.44;62.21;102325.08;1736147;82;21082;-58
2022/03/14 00:46:16;;;;;;;34.25;20.40;;;;;;;-0.36;62.23;102323.77;1734103;81;21557;-57
2022/03/14 00:48:45;;;;;;;36.48;20.97;;;;;;;-0.30;62.14;102319.44;1734580;82;21459;-57
2022/03/14 00:51:11;;;;;;;33.75;20.60;;;;;;;-0.29;62.00;102314.67;1735313;81;21106;-57
2022/03/14 00:53:39;;;;;;;34.43;22.45;;;;;;;-0.28;62.02;102319.00;1735531;82;21070;-57
2022/03/14 00:56:06;;;;;;;41.35;20.65;;;;;;;-0.23;61.96;102315.95;1726336;81;21467;-57
2022/03/14 00:58:34;;;;;;;41.02;24.45;;;;;;;-0.23;61.96;102315.95;1737294;82;21110;-57
2022/03/14 01:01:03;;;;;;;41.58;24.45;;;;;;;-0.21;61.72;102316.80;1732365;81;21091;-57
2022/03/14 01:03:29;;;;;;;37.48;22.27;;;;;;;-0.21;61.75;102320.68;1732474;82;21009;-58
2022/03/14 01:05:56;;;;;;;37.33;23.02;;;;;;;-0.25;61.70;102317.70;1733885;81;21094;-57
2022/03/14 01:08:23;;;;;;;41.83;22.58;;;;;;;-0.31;61.80;102319.00;1731751;81;21068;-57
2022/03/14 01:10:50;;;;;;;38.65;23.57;;;;;;;-0.32;61.88;102326.77;1736020;81;21130;-58
2022/03/14 01:13:18;;;;;;;40.15;23.83;;;;;;;-0.33;62.01;102325.91;1730540;82;21052;-57
2022/03/14 01:15:46;;;;;;;39.67;24.20;;;;;;;-0.29;62.10;102330.20;1736007;81;21060;-57
2022/03/14 01:18:13;;;;;;;37.73;22.40;;;;;;;-0.23;62.03;102322.87;1734556;81;21043;-58
2022/03/14 01:20:41;;;;;;;40.52;23.38;;;;;;;-0.19;62.15;102326.70;1736023;82;21110;-57
2022/03/14 01:23:08;;;;;;;37.30;22.77;;;;;;;-0.16;62.16;102326.29;1728959;82;21148;-58
2022/03/14 01:25:35;;;;;;;35.63;21.70;;;;;;;-0.11;62.08;102324.54;1728666;82;21059;-57
2022/03/14 01:28:02;;;;;;;36.20;22.40;;;;;;;-0.09;62.18;102323.65;1726782;82;21554;-57
2022/03/14 01:30:29;;;;;;;37.45;21.90;;;;;;;-0.07;62.20;102328.82;1731784;82;21468;-57
2022/03/14 01:32:58;;;;;;;39.67;23.73;;;;;;;-0.04;62.32;102324.93;1735164;81;21150;-58
2022/03/14 01:35:25;;;;;;;32.10;19.87;;;;;;;0.01;62.34;102327.06;1733973;81;21140;-58
2022/03/14 01:37:52;;;;;;;34.60;20.62;;;;;;;0.05;62.40;102327.48;1733938;81;21585;-58
2022/03/14 01:40:21;;;;;;;31.90;21.30;;;;;;;0.09;62.50;102329.62;1730894;82;21036;-57
2022/03/14 01:42:48;;;;;;;34.95;22.13;;;;;;;0.14;62.49;102332.61;1728734;81;21074;-58
2022/03/14 01:45:17;;;;;;;36.85;22.67;;;;;;;0.16;62.42;102339.08;1732065;81;21060;-57
2022/03/14 01:47:44;;;;;;;39.03;23.75;;;;;;;0.20;62.45;102340.77;1731065;81;21206;-57
2022/03/14 01:50:12;;;;;;;30.40;20.08;;;;;;;0.23;62.46;102337.31;1737010;81;21067;-57
2022/03/14 01:52:39;;;;;;;36.75;23.73;;;;;;;0.24;62.46;102341.19;1733756;81;21541;-57
2022/03/14 01:55:07;;;;;;;38.65;21.42;;;;;;;0.27;62.66;102329.94;1731781;82;21118;-58
2022/03/14 01:57:34;;;;;;;36.77;22.45;;;;;;;0.29;62.53;102326.93;1731248;81;21617;-57
2022/03/14 02:00:04;;;;;;;40.65;23.10;;;;;;;0.33;62.33;102332.05;1737340;81;21204;-57
2022/03/14 02:02:32;;;;;;;45.10;25.05;;;;;;;0.35;62.19;102338.52;1724402;81;21066;-57
2022/03/14 02:05:00;;;;;;;37.17;22.50;;;;;;;0.36;62.01;102336.38;1736005;82;21078;-57
2022/03/14 02:07:26;;;;;;;39.25;22.37;;;;;;;0.37;61.87;102335.52;1734501;82;21562;-57
2022/03/14 02:09:54;;;;;;;37.00;21.70;;;;;;;0.39;61.80;102335.06;1729236;81;21009;-57
2022/03/14 02:12:21;;;;;;;33.00;21.37;;;;;;;0.39;61.75;102332.88;1728464;82;21132;-57
2022/03/14 02:14:48;;;;;;;35.60;21.93;;;;;;;0.38;61.74;102343.69;1705871;82;21538;-58
2022/03/14 02:17:18;;;;;;;36.98;22.20;;;;;;;0.37;61.89;102340.69;1730432;81;21099;-57
2022/03/14 02:19:46;;;;;;;44.27;23.92;;;;;;;0.39;61.76;102349.31;1730395;81;21052;-57
2022/03/14 02:22:14;;;;;;;35.33;21.20;;;;;;;0.39;61.70;102348.02;1722795;81;21110;-57
2022/03/14 02:24:42;;;;;;;35.40;21.37;;;;;;;0.41;61.90;102345.41;1721127;81;21191;-57
2022/03/14 02:27:08;;;;;;;39.63;22.65;;;;;;;0.47;61.87;102344.06;1725980;81;21677;-57
2022/03/14 02:29:35;;;;;;;44.15;23.18;;;;;;;0.42;61.70;102346.70;1734822;81;21070;-57
2022/03/14 02:32:02;;;;;;;36.30;22.30;;;;;;;0.41;61.89;102351.45;1734721;82;21067;-57
2022/03/14 02:34:28;;;;;;;37.45;21.90;;;;;;;0.40;62.06;102356.19;1735196;82;21065;-57
2022/03/14 02:36:55;;;;;;;35.35;20.95;;;;;;;0.41;62.12;102355.77;1728478;82;21450;-57
2022/03/14 02:39:22;;;;;;;35.70;23.02;;;;;;;0.41;62.12;102359.22;1724565;81;21103;-57
2022/03/14 02:41:49;;;;;;;37.80;23.18;;;;;;;0.44;62.14;102359.20;1732739;81;21059;-57
2022/03/14 02:44:15;;;;;;;40.12;22.22;;;;;;;0.46;62.06;102360.05;1720770;81;21020;-56
2022/03/14 02:46:43;;;;;;;37.45;23.40;;;;;;;0.49;62.08;102360.48;1718455;81;21067;-57
2022/03/14 02:49:11;;;;;;;33.05;22.22;;;;;;;0.48;62.15;102360.89;1735678;81;21133;-57
2022/03/14 02:51:38;;;;;;;38.95;21.40;;;;;;;0.51;62.20;102368.65;1733895;81;21538;-57
2022/03/14 02:54:09;;;;;;;35.43;21.15;;;;;;;0.53;62.11;102372.08;1728648;82;21056;-57
2022/03/14 02:56:37;;;;;;;35.98;22.55;;;;;;;0.57;62.10;102366.89;1729508;81;21712;-57
2022/03/14 02:59:05;;;;;;;37.40;22.02;;;;;;;0.60;62.03;102364.28;1729443;81;21111;-57
2022/03/14 03:01:34;;;;;;;33.20;21.73;;;;;;;0.63;62.05;102365.12;1727025;82;21143;-55
2022/03/14 03:04:01;;;;;;;35.68;20.48;;;;;;;0.64;61.83;102366.84;1727722;82;21490;-56
2022/03/14 03:06:28;;;;;;;31.90;19.37;;;;;;;0.63;61.79;102366.86;1728621;81;21083;-55
2022/03/14 03:08:55;;;;;;;32.73;20.62;;;;;;;0.61;61.81;102358.24;1733629;81;21071;-57
2022/03/14 03:11:23;;;;;;;34.25;20.35;;;;;;;0.63;61.78;102362.52;1730882;81;21606;-56
2022/03/14 03:13:52;;;;;;;33.38;22.30;;;;;;;0.66;61.80;102364.25;1732727;82;21210;-56
2022/03/14 03:16:18;;;;;;;34.70;20.15;;;;;;;0.67;61.78;102362.95;1729085;82;21491;-57
2022/03/14 03:18:45;;;;;;;35.35;19.12;;;;;;;0.67;61.53;102360.36;1712759;81;21123;-56
2022/03/14 03:21:11;;;;;;;32.23;18.48;;;;;;;0.66;61.61;102365.10;1737379;80;21044;-56
2022/03/14 03:23:41;;;;;;;31.82;21.00;;;;;;;0.65;61.66;102363.81;1727128;81;21094;-56
2022/03/14 03:26:08;;;;;;;31.77;19.10;;;;;;;0.67;61.58;102364.66;1733255;81;21247;-56
2022/03/14 03:28:35;;;;;;;33.58;19.62;;;;;;;0.68;61.57;102359.91;1732066;81;21559;-56
2022/03/14 03:31:08;;;;;;;30.32;19.62;;;;;;;0.71;61.62;102364.63;1732863;81;21020;-56
2022/03/14 03:33:37;;;;;;;30.12;18.25;;;;;;;0.76;61.42;102369.79;1730211;81;21059;-56
2022/03/14 03:36:06;;;;;;;31.30;19.10;;;;;;;0.77;61.31;102377.12;1735313;82;21056;-56
2022/03/14 03:38:33;;;;;;;28.10;17.92;;;;;;;0.80;61.15;102372.77;1732491;81;21253;-56
2022/03/14 03:40:59;;;;;;;32.75;19.73;;;;;;;0.79;60.87;102377.55;1733638;82;21537;-55
2022/03/14 03:43:26;;;;;;;37.63;19.10;;;;;;;0.79;60.52;102372.78;1729246;82;21024;-55
2022/03/14 03:45:52;;;;;;;30.00;19.07;;;;;;;0.77;60.42;102376.67;1729259;81;21067;-56
2022/03/14 03:48:20;;;;;;;32.38;19.32;;;;;;;0.80;60.46;102384.88;1731760;82;21111;-56
2022/03/14 03:50:47;;;;;;;33.90;19.75;;;;;;;0.82;60.44;102384.42;1736389;81;21951;-56
2022/03/14 03:53:14;;;;;;;33.13;19.67;;;;;;;0.85;60.45;102377.92;1735426;82;21052;-56
2022/03/14 03:55:41;;;;;;;28.45;19.23;;;;;;;0.87;60.41;102381.36;1730847;82;21082;-56
2022/03/14 03:58:08;;;;;;;36.85;19.35;;;;;;;0.91;60.26;102383.92;1734026;81;21067;-56
2022/03/14 04:00:35;;;;;;;34.27;20.75;;;;;;;0.93;60.05;102383.91;1737564;82;21199;-56
2022/03/14 04:03:02;;;;;;;32.08;19.00;;;;;;;0.98;59.87;102387.77;1729323;81;21704;-56
2022/03/14 04:05:30;;;;;;;33.88;19.35;;;;;;;0.99;59.77;102386.44;1715117;82;22333;-55
2022/03/14 04:07:59;;;;;;;30.05;18.80;;;;;;;1.03;59.64;102388.59;1732029;82;21000;-56
2022/03/14 04:10:29;;;;;;;31.68;20.08;;;;;;;1.04;59.49;102393.77;1736870;82;21114;-56
2022/03/14 04:12:56;;;;;;;32.30;19.87;;;;;;;1.06;59.45;102393.31;1735171;82;21134;-56
2022/03/14 04:15:23;;;;;;;33.73;19.30;;;;;;;1.08;59.50;102394.16;1732666;81;21973;-56
2022/03/14 04:17:50;;;;;;;31.45;18.67;;;;;;;1.16;59.29;102389.33;1725070;81;21031;-55
2022/03/14 04:20:16;;;;;;;30.62;19.70;;;;;;;1.17;59.18;102387.17;1736026;80;21076;-56
2022/03/14 04:22:43;;;;;;;32.85;20.23;;;;;;;1.21;59.04;102391.45;1740077;80;21125;-56
2022/03/14 04:25:11;;;;;;;30.10;19.07;;;;;;;1.26;58.92;102393.15;1733636;82;21123;-56
2022/03/14 04:27:38;;;;;;;31.10;18.67;;;;;;;1.34;58.65;102395.66;1738372;82;21174;-56
2022/03/14 04:30:07;;;;;;;36.38;21.60;;;;;;;1.35;58.25;102395.23;1734990;80;21549;-56
2022/03/14 04:44:58;;;;;;;34.88;22.65;;;;;;;2.89;55.17;102397.20;1823536;77;22711;-55
2022/03/14 04:47:26;;;;;;;34.35;19.32;;;;;;;2.99;54.63;102398.78;1792761;78;21038;-55
2022/03/14 04:49:53;;;;;;;35.50;20.30;;;;;;;2.92;54.52;102403.66;1789032;79;22147;-54
2022/03/14 04:52:21;;;;;;;36.65;21.82;;;;;;;2.78;54.77;102403.44;1797118;78;21039;-54
2022/03/14 04:54:48;;;;;;;35.05;21.48;;;;;;;2.66;55.05;102404.92;1804901;79;20923;-54
2022/03/14 04:57:15;;;;;;;34.78;20.80;;;;;;;2.51;55.36;102402.10;1795065;78;21044;-55
2022/03/14 04:59:42;;;;;;;38.75;20.25;;;;;;;2.37;55.53;102398.82;1795712;78;21034;-55
2022/03/14 05:02:08;;;;;;;39.25;22.60;;;;;;;2.26;55.70;102402.87;1794513;78;21976;-54
2022/03/14 05:04:37;;;;;;;34.48;21.17;;;;;;;2.14;55.98;102401.29;1797349;78;21002;-55
2022/03/14 05:07:07;;;;;;;35.40;20.00;;;;;;;2.08;56.23;102400.05;1769527;78;20982;-54
2022/03/14 05:09:34;;;;;;;34.18;21.12;;;;;;;2.00;56.39;102401.47;1792847;78;21595;-55
2022/03/14 05:12:03;;;;;;;32.00;19.37;;;;;;;1.96;56.46;102407.55;1787898;78;21507;-55
2022/03/14 05:14:30;;;;;;;36.58;18.90;;;;;;;1.87;56.71;102403.78;1793270;78;21151;-54
2022/03/14 05:16:57;;;;;;;33.30;19.75;;;;;;;1.82;56.88;102409.46;1796065;78;21007;-55
2022/03/14 05:19:24;;;;;;;34.67;21.02;;;;;;;1.78;57.08;102414.25;1793119;78;21507;-54
2022/03/14 05:21:51;;;;;;;30.02;19.35;;;;;;;1.77;57.06;102420.34;1797400;78;21058;-54
2022/03/14 05:24:18;;;;;;;33.20;22.25;;;;;;;1.70;57.18;102422.14;1800956;78;21030;-54
2022/03/14 05:26:46;;;;;;;34.92;21.00;;;;;;;1.71;57.27;102421.23;1790026;79;21964;-54
2022/03/14 05:29:14;;;;;;;33.67;19.67;;;;;;;1.73;57.33;102422.11;1805442;78;21020;-54
2022/03/14 05:31:42;;;;;;;29.75;19.60;;;;;;;1.77;57.11;102424.23;1729446;82;21101;-54
2022/03/14 05:34:08;;;;;;;31.77;20.35;;;;;;;1.76;57.09;102431.14;1761964;78;21043;-55
2022/03/14 05:36:36;;;;;;;40.03;20.85;;;;;;;1.76;57.08;102435.03;1759988;80;21027;-55
2022/03/14 05:39:04;;;;;;;41.30;22.32;;;;;;;1.76;57.17;102428.98;1751567;81;21594;-55
2022/03/14 05:41:31;;;;;;;35.80;22.13;;;;;;;1.78;57.16;102429.83;1747190;81;21075;-55
2022/03/14 05:43:57;;;;;;;39.98;22.30;;;;;;;1.81;57.28;102431.09;1739410;81;21368;-55
2022/03/14 05:46:24;;;;;;;38.45;23.15;;;;;;;1.86;57.26;102439.69;1734225;80;21039;-55
2022/03/14 05:48:50;;;;;;;33.25;20.25;;;;;;;1.88;57.27;102440.53;1713087;81;21091;-55
2022/03/14 05:51:17;;;;;;;33.02;20.27;;;;;;;1.92;57.21;102434.89;1787332;78;21150;-56
2022/03/14 05:53:44;;;;;;;31.27;20.20;;;;;;;1.96;57.03;102433.97;1784422;78;21122;-55
2022/03/14 05:56:10;;;;;;;37.50;21.80;;;;;;;1.98;56.84;102435.66;1788088;79;21069;-54
2022/03/14 05:58:37;;;;;;;36.63;22.05;;;;;;;1.98;57.00;102438.25;1789045;79;21520;-55
2022/03/14 06:01:03;;;;;;;35.80;19.92;;;;;;;2.04;56.97;102426.50;1786410;79;20975;-55
2022/03/14 06:03:30;;;;;;;36.13;19.60;;;;;;;2.10;57.00;102426.01;1786801;79;21825;-55
2022/03/14 06:05:56;;;;;;;35.43;19.42;;;;;;;2.16;56.72;102427.25;1783468;78;21057;-55
2022/03/14 06:08:23;;;;;;;27.85;16.07;;;;;;;2.19;56.31;102424.62;1777737;79;21079;-55
2022/03/14 06:10:52;;;;;;;25.10;15.32;;;;;;;2.22;54.66;102424.59;1783128;79;22234;-55
2022/03/14 06:13:19;;;;;;;28.50;16.15;;;;;;;2.19;54.42;102424.62;1740552;81;21074;-53
2022/03/14 06:15:47;;;;;;;25.55;15.50;;;;;;;2.12;54.65;102432.92;1743111;80;21139;-54
2022/03/14 06:18:14;;;;;;;22.13;14.95;;;;;;;1.98;55.08;102418.77;1737080;81;21055;-54
2022/03/14 06:20:42;;;;;;;27.75;16.60;;;;;;;1.94;55.26;102426.19;1745315;79;21046;-54
2022/03/14 06:23:08;;;;;;;26.90;14.03;;;;;;;1.96;55.52;102423.58;1750927;79;21062;-54
2022/03/14 06:25:36;;;;;;;20.75;12.65;;;;;;;2.07;55.21;102421.73;1747717;80;20988;-54
2022/03/14 06:28:04;;;;;;;22.95;12.75;;;;;;;2.13;54.53;102420.78;1745029;80;21152;-55
2022/03/14 06:30:30;;;;;;;23.25;12.05;;;;;;;2.23;53.69;102428.88;1738559;81;21059;-54
2022/03/14 06:32:57;;;;;;;18.17;7.78;;;;;;;2.26;53.16;102427.55;1734415;81;21058;-54
2022/03/14 06:35:24;;;;;;;15.35;8.98;;;;;;;2.32;51.84;102424.88;1732972;81;21098;-54
2022/03/14 06:37:51;;;;;;;16.35;9.33;;;;;;;2.31;50.95;102423.16;1784103;79;21174;-54
2022/03/14 06:40:18;;;;;;;13.95;9.25;;;;;;;2.35;51.05;102424.81;1784798;79;21415;-55
2022/03/14 06:42:49;;;;;;;13.10;8.18;;;;;;;2.37;50.23;102418.30;1783077;79;21073;-54
2022/03/14 06:45:20;;;;;;;15.13;9.35;;;;;;;2.37;50.71;102417.89;1786206;79;21062;-54
2022/03/14 06:47:45;;;;;;;13.70;9.03;;;;;;;2.39;51.01;102423.06;1794549;78;21049;-55
2022/03/14 06:50:13;;;;;;;15.85;8.60;;;;;;;2.44;50.97;102422.98;1784522;79;21079;-54
2022/03/14 06:52:41;;;;;;;16.70;8.00;;;;;;;2.49;50.53;102423.78;1792414;78;22511;-54
2022/03/14 06:55:10;;;;;;;10.78;6.25;;;;;;;2.51;49.58;102426.79;1795177;78;21022;-55
2022/03/14 06:57:39;;;;;;;11.43;5.67;;;;;;;2.49;48.62;102432.88;1791554;79;21043;-55
2022/03/14 07:00:07;;;;;;;9.55;5.15;;;;;;;2.42;47.72;102429.50;1792830;79;21059;-55
2022/03/14 07:02:40;;;;;;;8.50;4.30;;;;;;;2.40;47.32;102438.64;1790497;78;21376;-54
2022/03/14 07:05:13;;;;;;;9.15;5.05;;;;;;;2.38;46.47;102440.83;1790850;79;21753;-54
2022/03/14 07:07:40;;;;;;;10.25;5.25;;;;;;;2.33;46.31;102440.88;1790460;78;21047;-55
2022/03/14 07:10:09;;;;;;;11.68;6.12;;;;;;;2.32;46.52;102436.58;1791874;79;21426;-54
2022/03/14 07:12:44;;;;;;;9.65;5.72;;;;;;;2.29;46.47;102437.06;1787593;79;21082;-55
2022/03/14 07:15:07;;;;;;;10.28;6.35;;;;;;;2.30;46.80;102450.45;1790749;79;21066;-54
2022/03/14 07:17:34;;;;;;;10.35;5.97;;;;;;;2.26;46.18;102437.94;1784940;79;21610;-54
2022/03/14 07:20:01;;;;;;;13.85;7.65;;;;;;;2.27;46.54;102448.77;1786695;79;21109;-55
2022/03/14 07:22:30;;;;;;;12.55;7.30;;;;;;;2.29;46.54;102447.45;1788684;79;21536;-55
2022/03/14 07:24:57;;;;;;;13.05;7.05;;;;;;;2.33;46.59;102447.37;1738848;80;21904;-55
2022/03/14 07:27:24;;;;;;;13.08;7.58;;;;;;;2.34;46.02;102448.25;1793904;79;21073;-55
2022/03/14 07:29:50;;;;;;;12.10;7.05;;;;;;;2.35;46.09;102451.25;1790348;78;21914;-56
2022/03/14 07:32:17;;;;;;;11.85;6.20;;;;;;;2.33;46.31;102441.33;1789413;78;21064;-56
2022/03/14 07:34:44;;;;;;;11.08;5.70;;;;;;;2.28;46.06;102451.77;1787271;79;21090;-55
2022/03/14 07:37:10;;;;;;;9.95;5.47;;;;;;;2.28;46.25;102447.02;1790290;79;21026;-56
2022/03/14 07:39:37;;;;;;;13.93;6.00;;;;;;;2.28;46.18;102441.38;1793948;79;21089;-56
2022/03/14 07:42:05;;;;;;;11.45;6.28;;;;;;;2.27;46.47;102443.56;1794499;79;21795;-56
2022/03/14 07:44:32;;;;;;;12.37;6.33;;;;;;;2.28;46.21;102450.91;1801608;78;21038;-56
2022/03/14 07:46:59;;;;;;;9.90;6.45;;;;;;;2.29;46.29;102443.55;1784400;79;21031;-55
2022/03/14 07:49:27;;;;;;;14.00;6.37;;;;;;;2.29;46.19;102445.70;1805419;78;21034;-55
2022/03/14 07:51:55;;;;;;;11.50;6.65;;;;;;;2.29;46.37;102454.80;1810103;79;21046;-56
2022/03/14 07:54:25;;;;;;;10.40;6.40;;;;;;;2.28;46.00;102448.31;1794767;78;21210;-56
2022/03/14 07:56:52;;;;;;;13.25;6.47;;;;;;;2.29;46.09;102450.90;1788529;79;21066;-56
2022/03/14 07:59:20;;;;;;;10.03;5.75;;;;;;;2.32;46.47;102446.97;1802105;78;21022;-56
2022/03/14 08:01:46;;;;;;;13.65;6.55;;;;;;;2.36;46.20;102446.48;1778061;79;21685;-56
2022/03/14 08:04:12;;;;;;;12.33;6.85;;;;;;;2.38;46.38;102437.77;1798036;78;21591;-55
2022/03/14 08:06:41;;;;;;;12.60;7.42;;;;;;;2.46;46.26;102438.98;1787877;78;21894;-54
2022/03/14 08:09:08;;;;;;;13.70;7.58;;;;;;;2.53;46.14;102439.31;1805090;78;21062;-55
2022/03/14 08:11:38;;;;;;;14.58;7.45;;;;;;;2.62;46.58;102444.82;1795654;78;21030;-54
2022/03/14 08:14:06;;;;;;;12.47;7.58;;;;;;;2.70;45.86;102448.18;1795395;78;22215;-55
2022/03/14 08:16:34;;;;;;;14.05;7.78;;;;;;;2.77;46.08;102453.73;1792316;78;21090;-55
2022/03/14 08:19:01;;;;;;;16.50;9.75;;;;;;;2.81;46.16;102453.66;1744285;80;22135;-54
2022/03/14 08:21:29;;;;;;;14.35;8.00;;;;;;;2.87;46.16;102444.48;1797431;78;21010;-55
2022/03/14 08:23:55;;;;;;;13.48;8.50;;;;;;;2.92;45.87;102456.98;1796332;78;21056;-55
2022/03/14 08:26:22;;;;;;;13.08;7.80;;;;;;;2.96;45.82;102454.77;1738866;80;21547;-55
2022/03/14 08:28:49;;;;;;;17.23;8.90;;;;;;;3.00;45.67;102455.58;1768260;79;21094;-54
2022/03/14 08:31:18;;;;;;;15.90;8.60;;;;;;;2.92;45.58;102460.87;1748567;81;21189;-55
2022/03/14 08:33:45;;;;;;;15.40;9.33;;;;;;;2.87;45.62;102456.19;1798692;78;21034;-56
2022/03/14 08:36:11;;;;;;;17.42;9.40;;;;;;;2.84;45.79;102447.13;1791732;79;20999;-55
2022/03/14 08:38:40;;;;;;;15.80;8.08;;;;;;;2.81;45.43;102448.46;1738098;82;21057;-55
2022/03/14 08:41:07;;;;;;;13.22;8.55;;;;;;;2.77;45.98;102448.53;1741610;81;21053;-55
2022/03/14 08:43:34;;;;;;;16.55;10.05;;;;;;;2.79;45.85;102443.28;1737614;80;21496;-56
2022/03/14 08:46:00;;;;;;;14.75;8.80;;;;;;;2.85;45.81;102431.95;1782638;79;21007;-56
2022/03/14 08:48:27;;;;;;;16.30;9.10;;;;;;;2.92;45.58;102433.57;1793391;78;21023;-56
2022/03/14 08:50:54;;;;;;;16.57;8.48;;;;;;;2.93;45.54;102431.41;1811647;78;21051;-55
2022/03/14 08:53:20;;;;;;;15.30;9.08;;;;;;;2.97;45.39;102426.55;1796429;78;21111;-55
2022/03/14 08:55:47;;;;;;;16.15;8.55;;;;;;;3.04;45.17;102424.72;1795308;79;22128;-55
2022/03/14 08:58:13;;;;;;;14.85;8.05;;;;;;;3.12;44.92;102428.06;1795169;78;21061;-56
2022/03/14 09:00:40;;;;;;;12.33;6.65;;;;;;;3.20;44.84;102422.75;1804559;78;21078;-56
2022/03/14 09:03:07;;;;;;;13.43;7.08;;;;;;;3.29;44.59;102420.83;1795568;78;21095;-56
2022/03/14 09:05:34;;;;;;;11.40;7.50;;;;;;;3.34;44.34;102420.75;1791844;78;21132;-56
2022/03/14 09:08:01;;;;;;;10.90;6.85;;;;;;;3.38;44.37;102426.77;1798790;78;21157;-56
2022/03/14 09:10:27;;;;;;;12.80;7.50;;;;;;;3.43;44.32;102418.01;1741002;80;21081;-56
2022/03/14 09:12:55;;;;;;;15.55;8.43;;;;;;;3.50;43.88;102417.00;1804798;79;21039;-56
2022/03/14 09:15:24;;;;;;;15.23;8.25;;;;;;;3.56;43.80;102409.52;1793155;78;21034;-56
2022/03/14 09:17:59;;;;;;;9.45;6.15;;;;;;;3.58;43.68;102416.88;1792484;79;21970;-56
2022/03/14 09:20:26;;;;;;;14.78;9.13;;;;;;;3.59;43.89;102401.66;1793656;78;21295;-54
2022/03/14 09:22:53;;;;;;;18.50;10.98;;;;;;;3.56;44.02;102399.56;1786505;79;21046;-54
2022/03/14 09:25:21;;;;;;;18.70;11.08;;;;;;;3.47;43.45;102402.74;1800152;78;21094;-54
2022/03/14 09:27:49;;;;;;;17.23;10.85;;;;;;;3.45;43.54;102398.47;1811558;79;21054;-54
2022/03/14 09:30:16;;;;;;;16.45;10.38;;;;;;;3.37;43.57;102397.73;1805692;78;21573;-54
2022/03/14 09:32:43;;;;;;;17.65;9.78;;;;;;;3.38;43.70;102391.63;1738608;82;21170;-55
2022/03/14 09:35:10;;;;;;;14.70;9.13;;;;;;;3.38;44.12;102392.93;1745009;80;21011;-54
2022/03/14 09:37:38;;;;;;;16.23;9.20;;;;;;;3.44;44.42;102388.47;1751851;80;21050;-55
2022/03/14 09:40:12;;;;;;;13.13;8.93;;;;;;;3.54;43.57;102383.97;1739236;80;21097;-56
2022/03/14 09:42:41;;;;;;;21.65;11.43;;;;;;;3.64;43.88;102382.91;1737555;80;21137;-55
2022/03/14 09:45:10;;;;;;;15.40;10.43;;;;;;;3.69;42.60;102376.31;1792481;78;21093;-55
2022/03/14 09:47:42;;;;;;;16.75;10.15;;;;;;;3.71;42.99;102375.37;1784164;79;21121;-55
2022/03/14 09:50:15;;;;;;;16.50;9.20;;;;;;;3.76;43.43;102384.87;1780062;79;21019;-56
2022/03/14 09:52:43;;;;;;;17.90;9.20;;;;;;;3.82;43.54;102380.85;1783131;79;21024;-56
2022/03/14 09:55:12;;;;;;;19.37;9.90;;;;;;;3.82;42.73;102376.95;1787330;79;21225;-56
2022/03/14 09:57:40;;;;;;;14.28;8.98;;;;;;;3.80;43.23;102376.97;1785859;79;21212;-54
2022/03/14 10:00:15;;;;;;;16.17;8.48;;;;;;;3.83;42.86;102379.52;1786511;78;21536;-56
2022/03/14 10:02:42;;;;;;;14.70;9.03;;;;;;;3.93;42.99;102380.62;1777916;79;21004;-54
2022/03/14 10:05:11;;;;;;;14.85;8.33;;;;;;;3.99;42.77;102381.36;1783868;79;21034;-55
2022/03/14 10:07:40;;;;;;;12.40;8.05;;;;;;;4.04;42.83;102378.66;1780394;79;21093;-55
2022/03/14 10:10:09;;;;;;;13.75;8.95;;;;;;;4.11;42.52;102377.64;1785554;78;21112;-55
2022/03/14 10:12:38;;;;;;;13.65;8.65;;;;;;;4.19;42.79;102370.98;1780660;79;21003;-54
2022/03/14 10:15:06;;;;;;;18.15;10.28;;;;;;;4.32;42.58;102371.55;1783522;79;21090;-54
2022/03/14 10:17:35;;;;;;;16.82;11.57;;;;;;;4.38;42.42;102363.15;1784706;79;20999;-55
2022/03/14 10:20:06;;;;;;;25.52;14.18;;;;;;;4.40;42.48;102370.94;1780252;78;21058;-54
2022/03/14 10:22:39;;;;;;;21.65;13.85;;;;;;;4.38;41.93;102364.91;1779270;79;22277;-55
2022/03/14 10:25:15;;;;;;;18.87;13.25;;;;;;;4.37;42.20;102361.87;1788229;78;21148;-55
2022/03/14 10:27:48;;;;;;;27.45;14.75;;;;;;;4.37;42.04;102355.36;1784561;79;21721;-55
2022/03/14 10:30:30;;;;;;;20.00;14.28;;;;;;;4.37;42.31;102357.97;1783036;79;21039;-55
2022/03/14 10:33:14;;;;;;;22.80;14.18;;;;;;;4.44;42.11;102347.84;1780869;79;21540;-56
2022/03/14 10:35:44;;;;;;;19.15;12.35;;;;;;;4.50;41.94;102339.00;1786437;79;22270;-55
2022/03/14 10:38:12;;;;;;;18.40;11.63;;;;;;;4.64;41.86;102343.01;1785328;78;22278;-55
2022/03/14 10:40:45;;;;;;;17.98;10.98;;;;;;;4.77;41.68;102341.39;1798588;78;21023;-55
2022/03/14 10:43:27;;;;;;;16.52;11.03;;;;;;;4.87;41.08;102340.27;1782449;79;21075;-55
2022/03/14 10:45:55;;;;;;;17.35;10.35;;;;;;;4.93;41.16;102332.30;1780900;78;21106;-55
2022/03/14 10:48:36;;;;;;;16.05;10.25;;;;;;;5.01;40.56;102322.53;1780877;79;21931;-55
2022/03/14 10:51:12;;;;;;;14.70;8.75;;;;;;;5.09;40.89;102318.86;1795146;78;21546;-55
2022/03/14 10:53:45;;;;;;;12.40;7.67;;;;;;;5.17;40.58;102322.13;1783398;79;21023;-55
2022/03/14 10:56:12;;;;;;;11.75;8.00;;;;;;;5.23;40.65;102332.42;1790906;78;21078;-55
2022/03/14 10:58:39;;;;;;;12.98;6.92;;;;;;;5.23;40.57;102327.20;1783919;79;21034;-55
2022/03/14 11:01:08;;;;;;;12.98;7.50;;;;;;;5.24;40.38;102316.30;1795836;79;21860;-55
2022/03/14 11:03:39;;;;;;;12.43;7.33;;;;;;;5.31;40.87;102316.53;1791203;78;21429;-55
2022/03/14 11:06:13;;;;;;;13.30;6.70;;;;;;;5.43;40.40;102314.03;1793957;78;21323;-55
2022/03/14 11:08:47;;;;;;;17.90;8.03;;;;;;;5.48;39.98;102301.70;1789886;79;21034;-57
2022/03/14 11:11:22;;;;;;;10.00;5.67;;;;;;;5.46;39.88;102299.59;1790406;79;21535;-56
2022/03/14 11:13:51;;;;;;;11.60;6.33;;;;;;;5.49;39.80;102300.36;1782789;79;21263;-57
2022/03/14 11:16:34;;;;;;;10.48;6.45;;;;;;;5.54;39.70;102297.17;1801920;78;21034;-56
2022/03/14 11:19:00;;;;;;;8.88;6.03;;;;;;;5.57;39.65;102289.25;1800428;79;21093;-55
2022/03/14 11:21:27;;;;;;;11.45;5.87;;;;;;;5.63;39.03;102281.72;1793233;78;21070;-57
2022/03/14 11:23:55;;;;;;;8.45;4.62;;;;;;;5.67;39.25;102282.02;1794966;78;21552;-56
2022/03/14 11:26:24;;;;;;;12.00;6.12;;;;;;;5.73;38.76;102280.55;1786767;79;21272;-58
2022/03/14 11:28:54;;;;;;;10.30;5.67;;;;;;;5.80;39.44;102279.03;1797361;79;20987;-54
2022/03/14 11:31:22;;;;;;;10.30;5.30;;;;;;;5.90;39.22;102270.89;1793493;79;21141;-54
2022/03/14 11:33:48;;;;;;;9.73;6.17;;;;;;;6.03;38.77;102281.00;1796379;78;21531;-56
2022/03/14 11:36:21;;;;;;;10.72;4.92;;;;;;;6.07;38.56;102261.27;1792094;78;21069;-57